createdAt,value
2022-12-13T00:00:00.407Z,25.50
2022-12-13T00:01:15.748Z,23.20
2022-12-13T00:02:20.670Z,27.90
2022-12-13T00:03:24.795Z,25.40
2022-12-13T00:04:28.933Z,30.20
2022-12-13T00:05:33.470Z,27.10
2022-12-13T00:06:37.470Z,29.20
2022-12-13T00:07:41.509Z,27.70
2022-12-13T00:08:45.665Z,27.70
2022-12-13T00:09:49.614Z,20.80
2022-12-13T00:11:05.255Z,28.10
2022-12-13T00:12:09.260Z,23.50
2022-12-13T00:13:13.171Z,25.70
2022-12-13T00:14:17.920Z,25.70
2022-12-13T00:15:21.850Z,22.30
2022-12-13T00:16:26.702Z,27.30
2022-12-13T00:17:32.268Z,25.80
2022-12-13T00:18:36.279Z,27.00
2022-12-13T00:19:40.231Z,23.40
2022-12-13T00:20:44.290Z,24.40
2022-12-13T00:21:48.304Z,28.70
2022-12-13T00:22:52.454Z,27.00
2022-12-13T00:23:57.174Z,27.00
2022-12-13T00:25:01.142Z,25.40
2022-12-13T00:26:12.380Z,22.40
2022-12-13T00:27:16.347Z,25.80
2022-12-13T00:28:20.222Z,25.90
2022-12-13T00:29:24.116Z,27.30
2022-12-13T00:30:31.703Z,28.40
2022-12-13T00:31:58.703Z,25.80
2022-12-13T00:33:00.420Z,24.40
2022-12-13T00:34:05.526Z,25.90
2022-12-13T00:35:09.652Z,23.90
2022-12-13T00:36:13.979Z,23.70
2022-12-13T00:37:18.055Z,26.70
2022-12-13T00:38:23.582Z,29.80
2022-12-13T00:39:28.228Z,22.90
2022-12-13T00:40:32.371Z,26.80
2022-12-13T00:41:37.291Z,21.40
2022-12-13T00:42:41.404Z,27.50
2022-12-13T00:43:46.260Z,27.20
2022-12-13T00:44:50.257Z,23.00
2022-12-13T00:45:54.378Z,21.80
2022-12-13T00:46:58.303Z,28.10
2022-12-13T00:48:03.237Z,22.00
2022-12-13T00:49:07.822Z,26.50
2022-12-13T00:50:11.772Z,25.60
2022-12-13T00:51:16.276Z,23.70
2022-12-13T00:52:20.235Z,28.40
2022-12-13T00:53:24.305Z,24.50
2022-12-13T00:54:28.274Z,22.90
2022-12-13T00:55:32.780Z,23.80
2022-12-13T00:56:37.873Z,22.80
2022-12-13T00:57:41.833Z,24.20
2022-12-13T00:58:51.563Z,24.20
2022-12-13T00:59:55.969Z,25.10
2022-12-13T01:01:09.094Z,23.90
2022-12-13T01:02:13.185Z,24.10
2022-12-13T01:03:25.486Z,25.60
2022-12-13T01:04:30.605Z,23.60
2022-12-13T01:06:13.075Z,26.20
2022-12-13T01:06:59.374Z,27.20
2022-12-13T01:08:03.517Z,20.10
2022-12-13T01:09:14.337Z,26.60
2022-12-13T01:10:18.374Z,25.10
2022-12-13T01:11:22.859Z,25.40
2022-12-13T01:12:26.854Z,25.50
2022-12-13T01:13:31.790Z,25.10
2022-12-13T01:14:36.198Z,25.60
2022-12-13T01:15:44.474Z,28.20
2022-12-13T01:16:48.519Z,24.60
2022-12-13T01:17:52.588Z,22.20
2022-12-13T01:18:57.925Z,28.60
2022-12-13T01:20:02.356Z,27.10
2022-12-13T01:21:16.688Z,24.40
2022-12-13T01:22:20.616Z,24.50
2022-12-13T01:23:24.788Z,24.50
2022-12-13T01:24:30.933Z,22.40
2022-12-13T01:25:37.617Z,26.30
2022-12-13T01:26:41.884Z,25.90
2022-12-13T01:27:45.762Z,26.00
2022-12-13T01:28:49.749Z,25.70
2022-12-13T01:29:53.658Z,28.10
2022-12-13T01:31:10.086Z,27.50
2022-12-13T01:32:14.089Z,25.80
2022-12-13T01:33:18.029Z,26.50
2022-12-13T01:34:26.365Z,26.70
2022-12-13T01:35:34.537Z,26.20
2022-12-13T01:36:40.594Z,25.20
2022-12-13T01:37:44.653Z,27.40
2022-12-13T01:38:48.771Z,24.70
2022-12-13T01:39:52.552Z,24.80
2022-12-13T01:41:02.754Z,23.10
2022-12-13T01:42:21.119Z,25.00
2022-12-13T01:43:32.143Z,23.90
2022-12-13T01:44:57.723Z,24.10
2022-12-13T01:46:01.799Z,26.10
2022-12-13T01:47:05.767Z,26.30
2022-12-13T01:48:17.580Z,26.90
2022-12-13T01:49:21.843Z,25.20
2022-12-13T01:50:30.200Z,25.70
2022-12-13T01:51:47.693Z,26.50
2022-12-13T01:52:53.136Z,27.00
2022-12-13T01:53:59.832Z,27.10
2022-12-13T01:55:06.577Z,23.10
2022-12-13T01:56:18.415Z,27.80
2022-12-13T01:57:24.149Z,24.70
2022-12-13T01:58:28.717Z,26.10
2022-12-13T01:59:34.613Z,26.20
2022-12-13T02:00:38.556Z,26.40
2022-12-13T02:01:46.965Z,25.50
2022-12-13T02:02:51.130Z,22.70
2022-12-13T02:03:55.595Z,26.60
2022-12-13T02:05:20.587Z,26.20
2022-12-13T02:06:35.208Z,25.80
2022-12-13T02:07:41.855Z,25.80
2022-12-13T02:08:46.782Z,28.30
2022-12-13T02:09:56.812Z,26.00
2022-12-13T02:11:02.127Z,28.10
2022-12-13T02:12:07.216Z,24.10
2022-12-13T02:13:11.447Z,26.00
2022-12-13T02:14:15.606Z,27.60
2022-12-13T02:15:20.474Z,23.50
2022-12-13T02:16:38.939Z,25.00
2022-12-13T02:18:01.600Z,23.40
2022-12-13T02:19:29.270Z,29.40
2022-12-13T02:21:00.111Z,22.40
2022-12-13T02:22:35.581Z,23.30
2022-12-13T02:24:17.996Z,26.80
2022-12-13T02:25:52.387Z,25.20
2022-12-13T02:27:30.462Z,23.40
2022-12-13T02:28:44.026Z,23.50
2022-12-13T02:30:06.452Z,28.70
2022-12-13T02:31:18.159Z,23.50
2022-12-13T02:32:34.024Z,28.20
2022-12-13T02:33:56.414Z,26.10
2022-12-13T02:35:06.572Z,25.10
2022-12-13T02:36:35.885Z,22.50
2022-12-13T02:37:59.320Z,25.50
2022-12-13T02:39:10.783Z,23.80
2022-12-13T02:40:24.388Z,25.00
2022-12-13T02:41:41.167Z,29.30
2022-12-13T02:43:26.352Z,24.20
2022-12-13T02:44:43.456Z,19.70
2022-12-13T02:45:50.780Z,27.50
2022-12-13T02:47:05.498Z,22.60
2022-12-13T02:48:26.091Z,26.20
2022-12-13T02:49:33.174Z,21.30
2022-12-13T02:50:38.091Z,21.30
2022-12-13T02:51:43.528Z,23.50
2022-12-13T02:52:48.830Z,25.90
2022-12-13T02:53:52.680Z,26.30
2022-12-13T02:54:57.090Z,27.00
2022-12-13T02:56:01.041Z,22.00
2022-12-13T02:57:05.123Z,23.60
2022-12-13T02:58:17.452Z,20.10
2022-12-13T02:59:23.297Z,24.00
2022-12-13T03:00:45.415Z,24.60
2022-12-13T03:02:09.796Z,26.50
2022-12-13T03:03:42.608Z,24.30
2022-12-13T03:05:31.218Z,24.20
2022-12-13T03:07:10.636Z,21.00
2022-12-13T03:08:25.332Z,19.40
2022-12-13T03:09:38.427Z,19.40
2022-12-13T03:10:55.815Z,24.10
2022-12-13T03:12:33.483Z,22.60
2022-12-13T03:13:54.389Z,25.00
2022-12-13T03:15:07.176Z,26.90
2022-12-13T03:16:36.441Z,24.50
2022-12-13T03:17:49.576Z,25.20
2022-12-13T03:18:57.616Z,26.40
2022-12-13T03:20:03.162Z,25.70
2022-12-13T03:21:16.988Z,23.60
2022-12-13T03:22:21.273Z,24.50
2022-12-13T03:23:26.359Z,22.60
2022-12-13T03:24:30.394Z,24.90
2022-12-13T03:25:34.462Z,24.40
2022-12-13T03:26:39.828Z,22.20
2022-12-13T03:27:43.880Z,21.30
2022-12-13T03:28:48.459Z,26.70
2022-12-13T03:29:52.458Z,25.30
2022-12-13T03:30:56.549Z,21.80
2022-12-13T03:32:00.654Z,24.60
2022-12-13T03:33:05.225Z,22.50
2022-12-13T03:34:09.005Z,25.60
2022-12-13T03:35:22.396Z,24.20
2022-12-13T03:36:27.250Z,22.40
2022-12-13T03:37:31.165Z,24.80
2022-12-13T03:38:35.245Z,28.10
2022-12-13T03:39:39.371Z,22.30
2022-12-13T03:40:43.596Z,21.10
2022-12-13T03:41:47.939Z,23.10
2022-12-13T03:42:51.947Z,25.20
2022-12-13T03:43:55.793Z,22.90
2022-12-13T03:44:59.638Z,24.80
2022-12-13T03:46:04.040Z,27.30
2022-12-13T03:47:08.139Z,28.20
2022-12-13T03:49:17.579Z,24.90
2022-12-13T03:50:26.616Z,24.40
2022-12-13T03:51:31.257Z,24.10
2022-12-13T03:52:35.589Z,27.20
2022-12-13T03:53:39.570Z,28.00
2022-12-13T03:55:49.372Z,20.10
2022-12-13T03:56:53.540Z,24.40
2022-12-13T03:59:02.266Z,23.00
2022-12-13T04:00:07.163Z,24.00
2022-12-13T04:01:16.855Z,22.60
2022-12-13T04:02:31.019Z,26.30
2022-12-13T04:06:38.779Z,23.50
2022-12-13T04:07:48.094Z,19.10
2022-12-13T04:08:52.521Z,22.30
2022-12-13T04:09:56.486Z,24.20
2022-12-13T04:11:21.169Z,24.10
2022-12-13T04:12:48.163Z,22.60
2022-12-13T05:44:50.107Z,18.40
2022-12-13T05:45:56.471Z,20.40
2022-12-13T05:47:02.390Z,22.00
2022-12-13T05:48:09.273Z,22.40
2022-12-13T05:49:13.830Z,25.90
2022-12-13T05:50:18.160Z,25.60
2022-12-13T05:51:22.259Z,27.10
2022-12-13T05:52:30.394Z,21.60
2022-12-13T05:53:35.422Z,24.00
2022-12-13T05:54:42.924Z,25.40
2022-12-13T05:55:47.936Z,23.10
2022-12-13T05:56:52.314Z,22.80
2022-12-13T05:58:02.159Z,23.60
2022-12-13T05:59:07.193Z,24.50
2022-12-13T06:00:30.184Z,25.40
2022-12-13T06:01:35.582Z,23.40
2022-12-13T06:02:44.697Z,21.80
2022-12-13T06:03:49.200Z,23.20
2022-12-13T06:04:54.089Z,23.10
2022-12-13T06:06:01.467Z,22.60
2022-12-13T06:07:06.235Z,21.20
2022-12-13T06:09:29.500Z,19.70
2022-12-13T06:10:35.469Z,22.40
2022-12-13T06:11:43.282Z,10.10
2022-12-13T06:12:48.731Z,22.80
2022-12-13T06:13:53.171Z,23.50
2022-12-13T06:15:22.497Z,23.90
2022-12-13T06:16:28.114Z,22.20
2022-12-13T06:17:37.193Z,22.30
2022-12-13T06:18:41.555Z,23.10
2022-12-13T06:19:48.800Z,23.90
2022-12-13T06:20:58.528Z,23.00
2022-12-13T06:22:02.670Z,21.40
2022-12-13T06:23:07.882Z,23.20
2022-12-13T06:24:13.356Z,24.40
2022-12-13T06:25:30.741Z,21.70
2022-12-13T06:26:36.173Z,22.10
2022-12-13T06:27:40.553Z,22.90
2022-12-13T06:28:44.750Z,23.80
2022-12-13T06:29:49.428Z,21.90
2022-12-13T06:30:54.267Z,24.00
2022-12-13T06:32:03.346Z,25.50
2022-12-13T06:33:08.443Z,21.80
2022-12-13T06:34:14.606Z,18.50
2022-12-13T06:35:28.360Z,21.30
2022-12-13T06:36:34.478Z,23.80
2022-12-13T06:37:38.741Z,22.30
2022-12-13T06:38:43.832Z,23.20
2022-12-13T06:39:48.607Z,21.30
2022-12-13T06:40:53.147Z,24.40
2022-12-13T06:43:01.661Z,23.80
2022-12-13T06:44:05.738Z,22.50
2022-12-13T06:45:09.777Z,22.80
2022-12-13T06:46:15.306Z,18.80
2022-12-13T06:47:31.209Z,24.00
2022-12-13T06:48:37.457Z,22.80
2022-12-13T06:49:44.162Z,20.70
2022-12-13T06:50:50.322Z,21.60
2022-12-13T06:51:54.842Z,25.00
2022-12-13T06:52:59.094Z,22.40
2022-12-13T06:54:03.624Z,23.10
2022-12-13T06:55:08.231Z,24.30
2022-12-13T06:56:14.288Z,22.90
2022-12-13T06:57:18.623Z,22.50
2022-12-13T06:58:23.572Z,22.30
2022-12-13T07:00:35.743Z,20.10
2022-12-13T07:01:42.968Z,22.20
2022-12-13T07:02:55.902Z,21.20
2022-12-13T07:04:00.963Z,23.50
2022-12-13T07:06:18.457Z,21.20
2022-12-13T07:07:26.480Z,17.50
2022-12-13T07:08:32.063Z,22.30
2022-12-13T07:09:36.736Z,25.40
2022-12-13T07:10:41.042Z,23.60
2022-12-13T07:11:51.407Z,22.00
2022-12-13T07:12:56.704Z,23.40
2022-12-13T07:14:00.942Z,17.00
2022-12-13T07:15:06.845Z,19.40
2022-12-13T07:16:12.631Z,20.10
2022-12-13T07:17:32.894Z,22.10
2022-12-13T07:18:38.846Z,21.70
2022-12-13T07:19:45.262Z,22.00
2022-12-13T07:20:50.133Z,22.20
2022-12-13T07:21:54.644Z,23.40
2022-12-13T07:23:05.678Z,21.90
2022-12-13T07:24:09.877Z,22.30
2022-12-13T07:25:28.590Z,24.60
2022-12-13T07:26:33.659Z,24.80
2022-12-13T07:27:37.878Z,22.10
2022-12-13T07:30:01.304Z,19.00
2022-12-13T07:31:07.715Z,23.00
2022-12-13T07:32:11.898Z,18.50
2022-12-13T07:33:22.442Z,19.50
2022-12-13T07:34:26.927Z,21.40
2022-12-13T07:35:32.413Z,23.40
2022-12-13T07:36:42.670Z,22.50
2022-12-13T07:37:47.937Z,24.00
2022-12-13T07:38:56.779Z,22.60
2022-12-13T07:40:04.390Z,20.80
2022-12-13T07:41:09.465Z,23.80
2022-12-13T07:42:13.595Z,20.80
2022-12-13T07:43:18.064Z,21.60
2022-12-13T07:45:26.801Z,21.60
2022-12-13T07:46:33.229Z,24.50
2022-12-13T07:47:37.687Z,22.60
2022-12-13T07:48:41.811Z,24.10
2022-12-13T07:49:45.900Z,20.30
2022-12-13T07:51:20.722Z,20.80
2022-12-13T07:52:25.348Z,21.70
2022-12-13T07:53:29.523Z,18.20
2022-12-13T07:54:39.146Z,23.00
2022-12-13T07:55:44.104Z,23.90
2022-12-13T07:56:49.240Z,20.80
2022-12-13T07:57:54.064Z,21.10
2022-12-13T07:58:59.424Z,20.60
2022-12-13T08:00:05.421Z,22.20
2022-12-13T08:01:18.700Z,22.90
2022-12-13T08:02:26.253Z,26.60
2022-12-13T08:04:37.623Z,16.60
2022-12-13T08:05:42.959Z,25.10
2022-12-13T08:06:47.842Z,23.30
2022-12-13T08:08:57.839Z,26.00
2022-12-13T08:10:01.979Z,19.70
2022-12-13T08:11:10.430Z,21.10
2022-12-13T08:12:15.451Z,22.20
2022-12-13T08:13:29.580Z,23.00
2022-12-13T08:14:35.425Z,21.90
2022-12-13T08:15:41.082Z,22.70
2022-12-13T08:16:46.143Z,22.00
2022-12-13T08:17:56.306Z,22.40
2022-12-13T08:19:04.262Z,2.50
2022-12-13T08:20:10.056Z,14.80
2022-12-13T08:21:52.696Z,19.20
2022-12-13T08:36:29.939Z,18.20
2022-12-13T08:37:34.689Z,19.30
2022-12-13T08:38:39.019Z,23.70
2022-12-13T08:39:44.589Z,20.10
2022-12-13T08:40:48.402Z,18.70
2022-12-13T08:41:55.800Z,20.30
2022-12-13T08:42:59.799Z,21.10
2022-12-13T08:44:03.714Z,20.90
2022-12-13T08:45:08.701Z,34.30
2022-12-13T08:46:12.722Z,29.20
2022-12-13T08:47:23.051Z,23.80
2022-12-13T08:48:29.571Z,22.60
2022-12-13T09:04:19.687Z,18.60
2022-12-13T09:05:36.198Z,20.30
2022-12-13T09:06:43.050Z,19.50
2022-12-13T09:16:25.984Z,17.80
2022-12-13T09:17:36.912Z,15.80
2022-12-13T09:18:41.524Z,17.60
2022-12-13T09:19:57.983Z,19.50
2022-12-13T09:21:10.327Z,22.30
2022-12-13T09:22:17.458Z,21.20
2022-12-13T09:23:45.746Z,18.80
2022-12-13T09:24:50.409Z,19.40
2022-12-13T09:25:56.176Z,20.20
2022-12-13T09:27:27.716Z,22.80
2022-12-13T09:28:32.460Z,18.00
2022-12-13T09:29:38.486Z,23.00
2022-12-13T09:30:42.349Z,19.40
2022-12-13T09:31:52.622Z,20.70
2022-12-13T09:32:57.232Z,22.60
2022-12-13T09:34:01.159Z,23.70
2022-12-13T09:35:06.274Z,24.30
2022-12-13T09:36:16.122Z,21.50
2022-12-13T09:37:22.976Z,23.00
2022-12-13T09:38:27.190Z,21.90
2022-12-13T09:39:30.973Z,21.70
2022-12-13T09:40:38.001Z,21.80
2022-12-13T09:42:00.609Z,25.70
2022-12-13T09:43:12.447Z,20.20
2022-12-13T09:44:31.538Z,60.00
2022-12-13T09:45:42.862Z,37.90
2022-12-13T09:46:49.377Z,25.10
2022-12-13T09:48:01.514Z,20.40
2022-12-13T09:49:22.839Z,19.90
2022-12-13T09:50:29.493Z,18.30
2022-12-13T09:51:47.272Z,21.70
2022-12-13T09:53:00.095Z,16.60
2022-12-13T09:54:04.422Z,17.70
2022-12-13T09:55:42.142Z,21.80
2022-12-13T09:56:50.641Z,16.10
2022-12-13T09:57:56.027Z,17.70
2022-12-13T09:59:00.166Z,19.50
2022-12-13T10:00:12.464Z,18.60
2022-12-13T10:01:22.527Z,19.70
2022-12-13T10:02:33.260Z,17.40
2022-12-13T10:03:37.210Z,19.20
2022-12-13T10:04:41.327Z,20.60
2022-12-13T10:05:51.728Z,21.90
2022-12-13T10:06:56.091Z,18.10
2022-12-13T10:08:05.954Z,19.50
2022-12-13T10:09:13.899Z,20.80
2022-12-13T10:10:18.184Z,23.30
2022-12-13T10:11:22.992Z,18.90
2022-12-13T10:12:37.599Z,16.10
2022-12-13T10:13:41.774Z,16.10
2022-12-13T10:14:51.873Z,24.40
2022-12-13T10:16:02.801Z,20.60
2022-12-13T10:18:16.990Z,17.50
2022-12-13T10:19:30.665Z,19.80
2022-12-13T10:20:34.879Z,18.50
2022-12-13T10:21:42.177Z,19.70
2022-12-13T10:23:08.019Z,21.70
2022-12-13T10:24:31.566Z,20.40
2022-12-13T10:25:50.729Z,22.00
2022-12-13T10:26:58.782Z,18.40
2022-12-13T10:28:06.756Z,22.50
2022-12-13T10:29:10.906Z,19.50
2022-12-13T10:30:16.481Z,20.40
2022-12-13T10:31:20.718Z,18.60
2022-12-13T10:32:24.824Z,18.60
2022-12-13T10:33:31.656Z,18.30
2022-12-13T10:34:37.555Z,18.00
2022-12-13T10:35:43.835Z,19.70
2022-12-13T10:36:48.266Z,20.20
2022-12-13T10:37:53.215Z,22.10
2022-12-13T10:38:57.630Z,18.00
2022-12-13T10:40:01.385Z,19.00
2022-12-13T10:41:30.061Z,17.90
2022-12-13T10:42:34.303Z,20.00
2022-12-13T10:43:39.320Z,26.50
2022-12-13T10:44:43.835Z,19.00
2022-12-13T10:45:56.861Z,23.40
2022-12-13T10:47:17.259Z,21.00
2022-12-13T10:48:38.580Z,17.00
2022-12-13T10:49:52.454Z,19.50
2022-12-13T10:51:10.790Z,17.60
2022-12-13T10:52:31.162Z,19.50
2022-12-13T10:53:52.018Z,20.60
2022-12-13T10:55:01.346Z,17.00
2022-12-13T10:56:06.338Z,18.30
2022-12-13T10:57:11.818Z,26.10
2022-12-13T10:58:19.825Z,22.50
2022-12-13T10:59:35.518Z,16.50
2022-12-13T11:00:45.137Z,20.00
2022-12-13T11:01:49.185Z,19.70
2022-12-13T11:02:55.851Z,23.00
2022-12-13T11:04:02.903Z,19.60
2022-12-13T11:05:29.396Z,19.00
2022-12-13T11:06:45.165Z,19.00
2022-12-13T11:07:49.209Z,16.00
2022-12-13T11:08:53.946Z,16.90
2022-12-13T11:10:15.099Z,21.50
2022-12-13T11:11:28.312Z,19.10
2022-12-13T11:12:32.988Z,17.80
2022-12-13T11:13:46.068Z,18.30
2022-12-13T11:14:52.752Z,23.60
2022-12-13T11:15:56.994Z,19.80
2022-12-13T11:17:14.695Z,21.70
2022-12-13T11:18:22.523Z,16.60
2022-12-13T11:19:32.583Z,16.10
2022-12-13T11:20:38.044Z,25.70
2022-12-13T11:21:47.873Z,19.40
2022-12-13T11:23:03.204Z,18.20
2022-12-13T11:24:08.814Z,15.00
2022-12-13T11:25:33.755Z,18.50
2022-12-13T11:26:39.575Z,16.90
2022-12-13T11:28:26.330Z,18.00
2022-12-13T11:29:59.191Z,17.60
2022-12-13T11:31:46.191Z,18.10
2022-12-13T11:33:00.836Z,15.20
2022-12-13T11:34:25.594Z,19.20
2022-12-13T11:36:01.720Z,17.00
2022-12-13T11:37:33.055Z,15.70
2022-12-13T11:39:14.179Z,16.50
2022-12-13T11:40:25.839Z,14.50
2022-12-13T11:41:36.012Z,15.00
2022-12-13T11:43:12.108Z,13.00
2022-12-13T11:44:48.139Z,16.30
2022-12-13T11:46:00.897Z,38.90
2022-12-13T11:47:07.279Z,19.00
2022-12-13T11:48:21.927Z,15.20
2022-12-13T11:49:42.780Z,16.10
2022-12-13T11:50:50.114Z,16.20
2022-12-13T11:52:01.338Z,18.90
2022-12-13T11:53:30.970Z,14.00
2022-12-13T11:54:44.258Z,19.10
2022-12-13T11:56:33.089Z,15.40
2022-12-13T11:57:46.889Z,17.20
2022-12-13T11:59:26.507Z,17.20
2022-12-13T12:00:44.863Z,13.60
2022-12-13T12:02:18.198Z,15.50
2022-12-13T12:03:36.338Z,15.50
2022-12-13T12:04:54.920Z,13.90
2022-12-13T12:06:08.882Z,16.00
2022-12-13T12:07:34.013Z,15.30
2022-12-13T12:09:01.052Z,12.00
2022-12-13T12:10:33.204Z,20.40
2022-12-13T12:11:46.808Z,16.60
2022-12-13T12:12:58.492Z,13.80
2022-12-13T12:14:24.179Z,19.70
2022-12-13T12:15:33.316Z,16.80
2022-12-13T12:16:53.311Z,14.50
2022-12-13T12:17:57.630Z,17.20
2022-12-13T12:19:02.144Z,23.00
2022-12-13T12:22:12.321Z,25.40
2022-12-13T12:23:20.844Z,13.90
2022-12-13T12:24:49.186Z,14.50
2022-12-13T12:26:04.009Z,15.00
2022-12-13T12:27:23.589Z,13.90
2022-12-13T12:28:47.498Z,14.10
2022-12-13T12:30:09.733Z,16.20
2022-12-13T12:31:24.976Z,17.10
2022-12-13T12:32:42.610Z,15.70
2022-12-13T12:33:49.344Z,16.30
2022-12-13T12:35:08.531Z,15.70
2022-12-13T12:36:26.770Z,16.40
2022-12-13T12:37:53.678Z,19.30
2022-12-13T12:39:26.562Z,16.20
2022-12-13T12:41:15.199Z,16.40
2022-12-13T12:42:11.606Z,16.30
2022-12-13T12:43:30.928Z,14.90
2022-12-13T12:44:50.609Z,17.90
2022-12-13T12:46:19.051Z,15.00
2022-12-13T12:48:39.496Z,17.30
2022-12-13T12:49:45.696Z,13.90
2022-12-13T12:51:02.722Z,16.00
2022-12-13T12:52:32.260Z,17.40
2022-12-13T12:53:44.588Z,14.50
2022-12-13T12:55:11.792Z,14.90
2022-12-13T12:56:42.333Z,16.40
2022-12-13T12:58:01.583Z,15.60
2022-12-13T12:59:29.437Z,19.70
2022-12-13T13:00:52.165Z,21.90
2022-12-13T13:03:24.934Z,18.00
2022-12-13T13:04:35.793Z,19.50
2022-12-13T13:05:44.995Z,18.40
2022-12-13T13:07:01.353Z,14.20
2022-12-13T13:08:22.771Z,17.70
2022-12-13T13:09:28.248Z,18.30
2022-12-13T13:10:32.664Z,17.10
2022-12-13T13:11:42.858Z,20.90
2022-12-13T13:12:47.397Z,12.00
2022-12-13T13:14:23.807Z,14.10
2022-12-13T13:15:33.685Z,18.20
2022-12-13T13:16:41.038Z,16.20
2022-12-13T13:17:46.369Z,16.30
2022-12-13T13:18:51.825Z,18.40
2022-12-13T13:20:19.104Z,18.30
2022-12-13T13:21:22.965Z,30.60
2022-12-13T13:22:32.991Z,18.60
2022-12-13T13:23:41.014Z,20.80
2022-12-13T13:25:00.841Z,19.60
2022-12-13T13:26:26.036Z,16.40
2022-12-13T13:27:32.915Z,18.40
2022-12-13T13:28:36.905Z,18.00
2022-12-13T13:29:43.694Z,18.50
2022-12-13T13:31:09.097Z,17.30
2022-12-13T13:32:29.698Z,15.40
2022-12-13T13:33:46.987Z,17.00
2022-12-13T13:34:53.276Z,12.30
2022-12-13T13:35:57.502Z,15.10
2022-12-13T13:37:23.323Z,20.00
2022-12-13T13:38:48.517Z,16.10
2022-12-13T13:39:59.777Z,20.10
2022-12-13T13:41:39.108Z,18.80
2022-12-13T13:43:14.065Z,17.60
2022-12-13T13:44:34.165Z,25.90
2022-12-13T13:45:49.951Z,18.00
2022-12-13T13:47:19.213Z,19.30
2022-12-13T13:49:00.188Z,21.50
2022-12-13T13:50:24.926Z,18.70
2022-12-13T13:53:30.142Z,19.70
2022-12-13T13:54:49.598Z,19.80
2022-12-13T13:56:25.370Z,19.50
2022-12-13T13:58:09.788Z,24.20
2022-12-13T13:59:23.828Z,20.50
2022-12-13T14:00:36.934Z,12.60
2022-12-13T14:02:09.444Z,17.90
2022-12-13T14:03:35.780Z,30.50
2022-12-13T14:04:52.141Z,18.90
2022-12-13T14:06:32.665Z,15.20
2022-12-13T14:07:55.221Z,12.60
2022-12-13T14:09:22.790Z,23.00
2022-12-13T14:10:44.991Z,19.60
2022-12-13T14:12:19.959Z,20.80
2022-12-13T14:13:44.620Z,17.60
2022-12-13T14:15:07.594Z,17.50
2022-12-13T14:16:48.522Z,19.90
2022-12-13T14:18:21.209Z,22.60
2022-12-13T14:20:02.147Z,20.20
2022-12-13T14:21:37.325Z,18.40
2022-12-13T14:23:21.741Z,18.50
2022-12-13T14:24:44.647Z,21.80
2022-12-13T14:25:57.691Z,22.30
2022-12-13T14:27:21.165Z,21.60
2022-12-13T14:28:50.144Z,24.70
2022-12-13T14:29:57.845Z,18.70
2022-12-13T14:31:02.872Z,17.60
2022-12-13T14:32:26.745Z,19.10
2022-12-13T14:33:31.292Z,29.00
2022-12-13T14:34:35.461Z,26.40
2022-12-13T14:35:54.570Z,28.80
2022-12-13T14:37:18.593Z,28.30
2022-12-13T14:38:28.499Z,22.40
2022-12-13T14:39:36.349Z,28.40
2022-12-13T14:40:49.747Z,25.40
2022-12-13T14:41:56.724Z,29.90
2022-12-13T14:43:02.551Z,21.30
2022-12-13T14:45:29.471Z,21.70
2022-12-13T14:46:33.977Z,25.30
2022-12-13T14:47:40.965Z,23.50
2022-12-13T14:48:54.022Z,18.30
2022-12-13T14:49:58.819Z,20.10
2022-12-13T14:52:29.446Z,23.00
2022-12-13T14:53:38.042Z,17.10
2022-12-13T14:55:04.723Z,20.00
2022-12-13T14:56:10.658Z,20.00
2022-12-13T14:57:34.316Z,20.00
2022-12-13T14:58:39.027Z,17.50
2022-12-13T14:59:51.029Z,20.40
2022-12-13T15:00:57.672Z,20.20
2022-12-13T15:02:04.890Z,20.80
2022-12-13T15:03:23.102Z,20.30
2022-12-13T15:04:34.177Z,21.20
2022-12-13T15:05:50.204Z,21.70
2022-12-13T15:07:04.591Z,18.40
2022-12-13T15:08:10.998Z,20.40
2022-12-13T15:09:16.550Z,22.10
2022-12-13T15:10:41.893Z,21.60
2022-12-13T15:11:52.674Z,21.50
2022-12-13T15:12:56.631Z,21.10
2022-12-13T15:14:00.555Z,17.80
2022-12-13T15:15:08.210Z,24.30
2022-12-13T15:16:14.852Z,20.30
2022-12-13T15:17:34.816Z,23.60
2022-12-13T15:19:29.609Z,16.20
2022-12-13T15:20:40.641Z,15.80
2022-12-13T15:22:07.589Z,20.10
2022-12-13T15:23:37.151Z,20.70
2022-12-13T15:24:49.230Z,19.20
2022-12-13T15:26:28.699Z,20.60
2022-12-13T15:27:33.638Z,21.60
2022-12-13T15:28:41.817Z,19.10
2022-12-13T15:29:47.470Z,21.00
2022-12-13T15:30:52.345Z,19.90
2022-12-13T15:31:59.876Z,25.60
2022-12-13T15:33:16.705Z,23.00
2022-12-13T15:34:34.331Z,24.70
2022-12-13T15:35:38.352Z,22.70
2022-12-13T15:36:42.171Z,20.70
2022-12-13T15:37:47.107Z,21.80
2022-12-13T15:38:53.611Z,23.70
2022-12-13T15:40:01.645Z,23.40
2022-12-13T15:41:06.168Z,20.20
2022-12-13T15:42:21.689Z,21.40
2022-12-13T15:43:35.641Z,25.30
2022-12-13T15:44:48.055Z,24.70
2022-12-13T15:45:53.090Z,22.60
2022-12-13T15:47:11.830Z,21.50
2022-12-13T15:48:32.438Z,23.80
2022-12-13T15:49:40.170Z,18.40
2022-12-13T15:50:48.991Z,21.10
2022-12-13T15:51:56.164Z,25.10
2022-12-13T15:53:02.886Z,17.70
2022-12-13T15:54:21.346Z,20.90
2022-12-13T15:55:32.278Z,20.00
2022-12-13T15:56:55.091Z,19.80
2022-12-13T15:57:59.380Z,20.10
2022-12-13T15:59:05.067Z,19.40
2022-12-13T16:00:18.414Z,24.00
2022-12-13T16:01:34.632Z,19.50
2022-12-13T16:02:47.702Z,20.20
2022-12-13T16:03:52.060Z,19.20
2022-12-13T16:05:09.500Z,24.10
2022-12-13T16:07:33.044Z,20.20
2022-12-13T16:09:41.930Z,16.20
2022-12-13T16:10:50.664Z,19.30
2022-12-13T16:12:01.748Z,21.60
2022-12-13T16:13:08.113Z,19.90
2022-12-13T16:14:40.120Z,18.10
2022-12-13T16:15:59.918Z,19.00
2022-12-13T16:17:28.037Z,20.70
2022-12-13T16:18:41.159Z,16.10
2022-12-13T16:19:45.151Z,17.70
2022-12-13T16:20:50.646Z,19.90
2022-12-13T16:21:54.452Z,16.20
2022-12-13T16:22:59.974Z,17.40
2022-12-13T16:24:04.281Z,15.40
2022-12-13T16:25:12.973Z,16.70
2022-12-13T16:26:28.338Z,17.40
2022-12-13T16:27:32.195Z,20.00
2022-12-13T16:28:36.100Z,20.30
2022-12-13T16:29:40.846Z,26.20
2022-12-13T16:32:07.862Z,18.60
2022-12-13T16:33:27.119Z,17.80
2022-12-13T16:34:31.501Z,19.70
2022-12-13T16:35:35.318Z,19.60
2022-12-13T16:36:39.440Z,16.50
2022-12-13T16:37:43.497Z,16.20
2022-12-13T16:38:51.916Z,15.20
2022-12-13T16:39:55.903Z,16.70
2022-12-13T16:41:08.282Z,17.10
2022-12-13T16:42:13.392Z,16.60
2022-12-13T16:43:19.335Z,15.50
2022-12-13T16:44:34.013Z,18.30
2022-12-13T16:45:42.511Z,16.30
2022-12-13T16:47:11.778Z,16.10
2022-12-13T16:49:26.139Z,24.70
2022-12-13T16:50:30.068Z,15.80
2022-12-13T16:51:33.960Z,11.80
2022-12-13T16:52:39.621Z,14.10
2022-12-13T16:53:43.857Z,13.80
2022-12-13T16:54:48.323Z,13.50
2022-12-13T16:55:58.547Z,12.00
2022-12-13T16:57:03.199Z,12.90
2022-12-13T16:58:13.752Z,17.10
2022-12-13T16:59:22.973Z,13.20
2022-12-13T17:00:29.519Z,14.30
2022-12-13T17:01:33.374Z,17.50
2022-12-13T17:02:38.028Z,14.50
2022-12-13T17:03:42.294Z,15.00
2022-12-13T17:04:47.612Z,17.30
2022-12-13T17:05:51.512Z,14.70
2022-12-13T17:07:02.880Z,15.10
2022-12-13T17:08:06.707Z,20.00
2022-12-13T17:09:10.463Z,13.30
2022-12-13T17:10:14.408Z,12.10
2022-12-13T17:11:18.698Z,16.30
2022-12-13T17:12:26.395Z,11.80
2022-12-13T17:13:30.338Z,12.40
2022-12-13T17:15:38.975Z,16.20
2022-12-13T17:16:43.046Z,11.30
2022-12-13T17:17:47.777Z,15.00
2022-12-13T17:19:55.633Z,11.20
2022-12-13T17:21:07.022Z,13.10
2022-12-13T17:22:11.151Z,14.80
2022-12-13T17:23:18.373Z,12.40
2022-12-13T17:24:22.474Z,15.50
2022-12-13T17:25:26.428Z,12.30
2022-12-13T17:26:30.514Z,18.70
2022-12-13T17:27:35.150Z,11.30
2022-12-13T17:28:39.230Z,13.70
2022-12-13T17:29:43.118Z,12.80
2022-12-13T17:30:47.002Z,15.20
2022-12-13T17:31:58.823Z,13.60
2022-12-13T17:33:04.504Z,14.10
2022-12-13T17:34:08.367Z,12.00
2022-12-13T17:35:17.825Z,15.30
2022-12-13T17:36:23.296Z,12.30
2022-12-13T17:37:27.233Z,22.40
2022-12-13T17:38:31.264Z,16.60
2022-12-13T17:39:35.193Z,16.30
2022-12-13T17:40:39.126Z,16.90
2022-12-13T17:41:43.304Z,17.60
2022-12-13T17:42:58.535Z,12.20
2022-12-13T17:44:02.265Z,13.00
2022-12-13T17:45:06.780Z,15.40
2022-12-13T17:46:15.983Z,15.00
2022-12-13T17:47:21.928Z,12.20
2022-12-13T17:48:26.124Z,13.40
2022-12-13T17:49:30.179Z,12.00
2022-12-13T17:50:34.392Z,15.00
2022-12-13T17:51:38.153Z,13.40
2022-12-13T17:52:44.059Z,11.10
2022-12-13T17:53:48.054Z,17.50
2022-12-13T17:54:51.876Z,15.30